sensor_id;sensor_type;location;lat;lon;timestamp;P1;durP1;ratioP1;P2;durP2;ratioP2
57155;SDS011;43023;59.928;10.682;2023-06-05T00:00:53;1.63;;;0.88;;
57155;SDS011;43023;59.928;10.682;2023-06-05T00:03:19;1.60;;;0.90;;
57155;SDS011;43023;59.928;10.682;2023-06-05T00:05:45;0.95;;;0.63;;
57155;SDS011;43023;59.928;10.682;2023-06-05T00:08:11;1.30;;;0.80;;
57155;SDS011;43023;59.928;10.682;2023-06-05T00:10:37;0.98;;;0.50;;
57155;SDS011;43023;59.928;10.682;2023-06-05T00:13:03;0.65;;;0.60;;
57155;SDS011;43023;59.928;10.682;2023-06-05T00:15:30;0.90;;;0.77;;
57155;SDS011;43023;59.928;10.682;2023-06-05T00:17:58;1.48;;;0.60;;
57155;SDS011;43023;59.928;10.682;2023-06-05T00:20:25;0.85;;;0.75;;
57155;SDS011;43023;59.928;10.682;2023-06-05T00:22:51;0.70;;;0.50;;
57155;SDS011;43023;59.928;10.682;2023-06-05T00:25:17;1.27;;;0.70;;
57155;SDS011;43023;59.928;10.682;2023-06-05T00:27:43;0.68;;;0.60;;
57155;SDS011;43023;59.928;10.682;2023-06-05T00:30:09;0.50;;;0.50;;
57155;SDS011;43023;59.928;10.682;2023-06-05T00:32:36;0.63;;;0.60;;
57155;SDS011;43023;59.928;10.682;2023-06-05T00:35:02;0.95;;;0.60;;
57155;SDS011;43023;59.928;10.682;2023-06-05T00:37:28;0.57;;;0.57;;
57155;SDS011;43023;59.928;10.682;2023-06-05T00:39:55;0.65;;;0.65;;
57155;SDS011;43023;59.928;10.682;2023-06-05T00:42:21;0.90;;;0.57;;
57155;SDS011;43023;59.928;10.682;2023-06-05T00:44:47;0.60;;;0.60;;
57155;SDS011;43023;59.928;10.682;2023-06-05T00:47:13;1.10;;;0.60;;
57155;SDS011;43023;59.928;10.682;2023-06-05T00:49:40;1.48;;;0.43;;
57155;SDS011;43023;59.928;10.682;2023-06-05T00:52:06;1.00;;;0.63;;
57155;SDS011;43023;59.928;10.682;2023-06-05T00:54:32;2.15;;;0.47;;
57155;SDS011;43023;59.928;10.682;2023-06-05T00:56:59;0.70;;;0.70;;
57155;SDS011;43023;59.928;10.682;2023-06-05T00:59:27;0.40;;;0.40;;
57155;SDS011;43023;59.928;10.682;2023-06-05T01:01:53;2.15;;;0.80;;
57155;SDS011;43023;59.928;10.682;2023-06-05T01:04:19;1.55;;;0.80;;
57155;SDS011;43023;59.928;10.682;2023-06-05T01:06:45;0.50;;;0.50;;
57155;SDS011;43023;59.928;10.682;2023-06-05T01:09:11;0.63;;;0.63;;
57155;SDS011;43023;59.928;10.682;2023-06-05T01:14:23;2.05;;;0.50;;
57155;SDS011;43023;59.928;10.682;2023-06-05T01:16:53;0.63;;;0.40;;
57155;SDS011;43023;59.928;10.682;2023-06-05T01:19:22;0.68;;;0.47;;
57155;SDS011;43023;59.928;10.682;2023-06-05T01:21:50;0.70;;;0.70;;
57155;SDS011;43023;59.928;10.682;2023-06-05T01:24:16;1.27;;;0.52;;
57155;SDS011;43023;59.928;10.682;2023-06-05T01:29:34;0.85;;;0.60;;
57155;SDS011;43023;59.928;10.682;2023-06-05T01:32:11;0.70;;;0.70;;
57155;SDS011;43023;59.928;10.682;2023-06-05T01:34:41;0.77;;;0.70;;
57155;SDS011;43023;59.928;10.682;2023-06-05T01:37:08;0.77;;;0.52;;
57155;SDS011;43023;59.928;10.682;2023-06-05T01:39:37;0.65;;;0.40;;
57155;SDS011;43023;59.928;10.682;2023-06-05T01:42:04;0.30;;;0.30;;
57155;SDS011;43023;59.928;10.682;2023-06-05T01:44:30;0.50;;;0.50;;
57155;SDS011;43023;59.928;10.682;2023-06-05T01:46:56;1.25;;;0.55;;
57155;SDS011;43023;59.928;10.682;2023-06-05T01:49:22;0.70;;;0.70;;
57155;SDS011;43023;59.928;10.682;2023-06-05T01:51:48;2.60;;;0.63;;
57155;SDS011;43023;59.928;10.682;2023-06-05T01:54:15;0.82;;;0.70;;
57155;SDS011;43023;59.928;10.682;2023-06-05T01:56:41;1.08;;;0.75;;
57155;SDS011;43023;59.928;10.682;2023-06-05T01:59:08;0.52;;;0.50;;
57155;SDS011;43023;59.928;10.682;2023-06-05T02:01:34;1.20;;;0.60;;
57155;SDS011;43023;59.928;10.682;2023-06-05T02:04:01;0.40;;;0.40;;
57155;SDS011;43023;59.928;10.682;2023-06-05T02:06:34;0.93;;;0.73;;
57155;SDS011;43023;59.928;10.682;2023-06-05T02:09:11;0.70;;;0.68;;
57155;SDS011;43023;59.928;10.682;2023-06-05T02:11:37;0.50;;;0.50;;
57155;SDS011;43023;59.928;10.682;2023-06-05T02:14:04;1.25;;;0.68;;
57155;SDS011;43023;59.928;10.682;2023-06-05T02:16:31;0.57;;;0.47;;
57155;SDS011;43023;59.928;10.682;2023-06-05T02:18:58;2.00;;;0.50;;
57155;SDS011;43023;59.928;10.682;2023-06-05T02:21:29;1.85;;;0.60;;
57155;SDS011;43023;59.928;10.682;2023-06-05T02:23:55;1.55;;;0.50;;
57155;SDS011;43023;59.928;10.682;2023-06-05T02:26:23;0.80;;;0.57;;
57155;SDS011;43023;59.928;10.682;2023-06-05T02:28:50;0.60;;;0.60;;
57155;SDS011;43023;59.928;10.682;2023-06-05T02:31:20;0.90;;;0.60;;
57155;SDS011;43023;59.928;10.682;2023-06-05T02:33:50;0.55;;;0.55;;
57155;SDS011;43023;59.928;10.682;2023-06-05T02:36:16;0.70;;;0.70;;
57155;SDS011;43023;59.928;10.682;2023-06-05T02:38:42;0.50;;;0.50;;
57155;SDS011;43023;59.928;10.682;2023-06-05T02:41:09;0.50;;;0.50;;
57155;SDS011;43023;59.928;10.682;2023-06-05T02:43:36;0.57;;;0.57;;
57155;SDS011;43023;59.928;10.682;2023-06-05T02:46:02;0.73;;;0.57;;
57155;SDS011;43023;59.928;10.682;2023-06-05T02:48:28;0.85;;;0.60;;
57155;SDS011;43023;59.928;10.682;2023-06-05T02:50:54;0.77;;;0.50;;
57155;SDS011;43023;59.928;10.682;2023-06-05T02:53:20;0.47;;;0.40;;
57155;SDS011;43023;59.928;10.682;2023-06-05T02:55:46;0.47;;;0.40;;
57155;SDS011;43023;59.928;10.682;2023-06-05T02:58:13;0.50;;;0.50;;
57155;SDS011;43023;59.928;10.682;2023-06-05T03:00:40;0.98;;;0.60;;
57155;SDS011;43023;59.928;10.682;2023-06-05T03:03:07;0.28;;;0.28;;
57155;SDS011;43023;59.928;10.682;2023-06-05T03:05:33;1.20;;;0.63;;
57155;SDS011;43023;59.928;10.682;2023-06-05T03:07:59;1.35;;;0.52;;
57155;SDS011;43023;59.928;10.682;2023-06-05T03:10:26;0.40;;;0.40;;
57155;SDS011;43023;59.928;10.682;2023-06-05T03:12:53;0.55;;;0.50;;
57155;SDS011;43023;59.928;10.682;2023-06-05T03:15:19;1.58;;;0.40;;
57155;SDS011;43023;59.928;10.682;2023-06-05T03:17:46;0.68;;;0.38;;
57155;SDS011;43023;59.928;10.682;2023-06-05T03:20:12;0.50;;;0.50;;
57155;SDS011;43023;59.928;10.682;2023-06-05T03:22:38;0.57;;;0.57;;
57155;SDS011;43023;59.928;10.682;2023-06-05T03:25:05;0.47;;;0.47;;
57155;SDS011;43023;59.928;10.682;2023-06-05T03:27:31;0.73;;;0.50;;
57155;SDS011;43023;59.928;10.682;2023-06-05T03:29:57;0.40;;;0.40;;
57155;SDS011;43023;59.928;10.682;2023-06-05T03:32:23;0.60;;;0.52;;
57155;SDS011;43023;59.928;10.682;2023-06-05T03:34:50;0.70;;;0.52;;
57155;SDS011;43023;59.928;10.682;2023-06-05T03:37:16;1.95;;;0.60;;
57155;SDS011;43023;59.928;10.682;2023-06-05T03:39:42;0.30;;;0.30;;
57155;SDS011;43023;59.928;10.682;2023-06-05T03:42:08;0.52;;;0.40;;
57155;SDS011;43023;59.928;10.682;2023-06-05T03:44:36;0.60;;;0.50;;
57155;SDS011;43023;59.928;10.682;2023-06-05T03:47:02;0.30;;;0.30;;
57155;SDS011;43023;59.928;10.682;2023-06-05T03:49:28;0.50;;;0.50;;
57155;SDS011;43023;59.928;10.682;2023-06-05T03:51:55;0.43;;;0.43;;
57155;SDS011;43023;59.928;10.682;2023-06-05T03:54:27;0.50;;;0.43;;
57155;SDS011;43023;59.928;10.682;2023-06-05T03:56:56;0.40;;;0.40;;
57155;SDS011;43023;59.928;10.682;2023-06-05T03:59:24;0.30;;;0.30;;
57155;SDS011;43023;59.928;10.682;2023-06-05T04:01:50;0.30;;;0.30;;
57155;SDS011;43023;59.928;10.682;2023-06-05T04:04:16;0.50;;;0.50;;
57155;SDS011;43023;59.928;10.682;2023-06-05T04:06:43;0.35;;;0.30;;
57155;SDS011;43023;59.928;10.682;2023-06-05T04:09:09;0.50;;;0.50;;
57155;SDS011;43023;59.928;10.682;2023-06-05T04:11:39;0.25;;;0.25;;
57155;SDS011;43023;59.928;10.682;2023-06-05T04:14:05;0.57;;;0.57;;
57155;SDS011;43023;59.928;10.682;2023-06-05T04:16:31;0.57;;;0.57;;
57155;SDS011;43023;59.928;10.682;2023-06-05T04:18:59;0.73;;;0.40;;
57155;SDS011;43023;59.928;10.682;2023-06-05T04:21:25;0.40;;;0.40;;
57155;SDS011;43023;59.928;10.682;2023-06-05T04:23:51;0.50;;;0.50;;
57155;SDS011;43023;59.928;10.682;2023-06-05T04:26:18;0.40;;;0.40;;
57155;SDS011;43023;59.928;10.682;2023-06-05T04:28:45;0.43;;;0.43;;
57155;SDS011;43023;59.928;10.682;2023-06-05T04:31:16;0.43;;;0.40;;
57155;SDS011;43023;59.928;10.682;2023-06-05T04:33:42;1.20;;;0.70;;
57155;SDS011;43023;59.928;10.682;2023-06-05T04:36:08;0.38;;;0.38;;
57155;SDS011;43023;59.928;10.682;2023-06-05T04:38:34;0.43;;;0.43;;
57155;SDS011;43023;59.928;10.682;2023-06-05T04:41:02;0.55;;;0.40;;
57155;SDS011;43023;59.928;10.682;2023-06-05T04:43:28;0.40;;;0.40;;
57155;SDS011;43023;59.928;10.682;2023-06-05T04:45:54;0.40;;;0.40;;
57155;SDS011;43023;59.928;10.682;2023-06-05T04:48:20;0.52;;;0.50;;
57155;SDS011;43023;59.928;10.682;2023-06-05T04:50:46;0.68;;;0.60;;
57155;SDS011;43023;59.928;10.682;2023-06-05T04:53:13;0.50;;;0.50;;
57155;SDS011;43023;59.928;10.682;2023-06-05T04:55:41;2.65;;;0.60;;
57155;SDS011;43023;59.928;10.682;2023-06-05T04:58:07;0.63;;;0.43;;
57155;SDS011;43023;59.928;10.682;2023-06-05T05:00:33;1.60;;;0.98;;
57155;SDS011;43023;59.928;10.682;2023-06-05T05:03:00;3.40;;;0.68;;
57155;SDS011;43023;59.928;10.682;2023-06-05T05:05:27;1.75;;;0.93;;
57155;SDS011;43023;59.928;10.682;2023-06-05T05:07:54;4.82;;;0.70;;
57155;SDS011;43023;59.928;10.682;2023-06-05T05:10:20;1.27;;;0.80;;
57155;SDS011;43023;59.928;10.682;2023-06-05T05:12:46;2.47;;;0.85;;
57155;SDS011;43023;59.928;10.682;2023-06-05T05:15:12;1.13;;;0.80;;
57155;SDS011;43023;59.928;10.682;2023-06-05T05:17:38;2.17;;;0.47;;
57155;SDS011;43023;59.928;10.682;2023-06-05T05:20:05;1.27;;;0.63;;
57155;SDS011;43023;59.928;10.682;2023-06-05T05:22:32;0.88;;;0.77;;
57155;SDS011;43023;59.928;10.682;2023-06-05T05:24:58;1.92;;;0.65;;
57155;SDS011;43023;59.928;10.682;2023-06-05T05:27:24;4.57;;;0.88;;
57155;SDS011;43023;59.928;10.682;2023-06-05T05:29:50;0.80;;;0.80;;
57155;SDS011;43023;59.928;10.682;2023-06-05T05:32:16;2.25;;;0.90;;
57155;SDS011;43023;59.928;10.682;2023-06-05T05:34:42;1.85;;;0.75;;
57155;SDS011;43023;59.928;10.682;2023-06-05T05:37:08;3.28;;;0.82;;
57155;SDS011;43023;59.928;10.682;2023-06-05T05:39:34;1.25;;;0.70;;
57155;SDS011;43023;59.928;10.682;2023-06-05T05:42:00;2.42;;;0.90;;
57155;SDS011;43023;59.928;10.682;2023-06-05T05:44:27;2.92;;;0.70;;
57155;SDS011;43023;59.928;10.682;2023-06-05T05:46:53;0.93;;;0.70;;
57155;SDS011;43023;59.928;10.682;2023-06-05T05:49:19;3.55;;;0.75;;
57155;SDS011;43023;59.928;10.682;2023-06-05T05:51:45;1.02;;;0.70;;
57155;SDS011;43023;59.928;10.682;2023-06-05T05:54:11;3.05;;;1.25;;
57155;SDS011;43023;59.928;10.682;2023-06-05T05:56:38;2.65;;;0.70;;
57155;SDS011;43023;59.928;10.682;2023-06-05T05:59:04;1.45;;;0.60;;
57155;SDS011;43023;59.928;10.682;2023-06-05T06:01:30;0.80;;;0.60;;
57155;SDS011;43023;59.928;10.682;2023-06-05T06:03:57;1.25;;;0.80;;
57155;SDS011;43023;59.928;10.682;2023-06-05T06:06:23;4.07;;;0.90;;
57155;SDS011;43023;59.928;10.682;2023-06-05T06:08:49;4.30;;;0.75;;
57155;SDS011;43023;59.928;10.682;2023-06-05T06:11:16;1.67;;;0.52;;
57155;SDS011;43023;59.928;10.682;2023-06-05T06:13:43;1.85;;;0.90;;
57155;SDS011;43023;59.928;10.682;2023-06-05T06:16:09;3.17;;;0.80;;
57155;SDS011;43023;59.928;10.682;2023-06-05T06:18:35;1.20;;;0.70;;
57155;SDS011;43023;59.928;10.682;2023-06-05T06:21:02;2.90;;;1.20;;
57155;SDS011;43023;59.928;10.682;2023-06-05T06:23:29;1.15;;;0.70;;
57155;SDS011;43023;59.928;10.682;2023-06-05T06:25:55;2.70;;;0.77;;
57155;SDS011;43023;59.928;10.682;2023-06-05T06:28:21;1.40;;;0.93;;
57155;SDS011;43023;59.928;10.682;2023-06-05T06:30:48;2.28;;;0.60;;
57155;SDS011;43023;59.928;10.682;2023-06-05T06:33:15;2.42;;;0.95;;
57155;SDS011;43023;59.928;10.682;2023-06-05T06:35:41;0.98;;;0.90;;
57155;SDS011;43023;59.928;10.682;2023-06-05T06:38:08;3.03;;;1.20;;
57155;SDS011;43023;59.928;10.682;2023-06-05T06:40:34;5.03;;;1.30;;
57155;SDS011;43023;59.928;10.682;2023-06-05T06:43:01;2.20;;;0.98;;
57155;SDS011;43023;59.928;10.682;2023-06-05T06:45:27;3.38;;;0.68;;
57155;SDS011;43023;59.928;10.682;2023-06-05T06:47:53;5.47;;;0.90;;
57155;SDS011;43023;59.928;10.682;2023-06-05T06:50:19;2.83;;;0.55;;
57155;SDS011;43023;59.928;10.682;2023-06-05T06:52:45;1.65;;;0.80;;
57155;SDS011;43023;59.928;10.682;2023-06-05T06:55:11;3.22;;;0.65;;
57155;SDS011;43023;59.928;10.682;2023-06-05T06:57:37;2.85;;;0.77;;
57155;SDS011;43023;59.928;10.682;2023-06-05T07:00:04;1.02;;;0.80;;
57155;SDS011;43023;59.928;10.682;2023-06-05T07:02:34;2.55;;;0.73;;
57155;SDS011;43023;59.928;10.682;2023-06-05T07:05:02;0.88;;;0.63;;
57155;SDS011;43023;59.928;10.682;2023-06-05T07:07:29;1.10;;;0.70;;
57155;SDS011;43023;59.928;10.682;2023-06-05T07:09:55;3.78;;;0.77;;
57155;SDS011;43023;59.928;10.682;2023-06-05T07:12:23;4.07;;;0.77;;
57155;SDS011;43023;59.928;10.682;2023-06-05T07:14:49;2.45;;;0.88;;
57155;SDS011;43023;59.928;10.682;2023-06-05T07:17:15;2.40;;;0.75;;
57155;SDS011;43023;59.928;10.682;2023-06-05T07:19:41;1.10;;;0.70;;
57155;SDS011;43023;59.928;10.682;2023-06-05T07:22:07;1.02;;;0.80;;
57155;SDS011;43023;59.928;10.682;2023-06-05T07:24:34;2.63;;;0.90;;
57155;SDS011;43023;59.928;10.682;2023-06-05T07:27:01;1.50;;;0.85;;
57155;SDS011;43023;59.928;10.682;2023-06-05T07:29:28;1.65;;;0.77;;
57155;SDS011;43023;59.928;10.682;2023-06-05T07:31:54;3.30;;;0.77;;
57155;SDS011;43023;59.928;10.682;2023-06-05T07:34:21;1.45;;;0.68;;
57155;SDS011;43023;59.928;10.682;2023-06-05T07:36:48;1.90;;;0.80;;
57155;SDS011;43023;59.928;10.682;2023-06-05T07:39:15;1.23;;;0.63;;
57155;SDS011;43023;59.928;10.682;2023-06-05T07:41:42;0.80;;;0.70;;
57155;SDS011;43023;59.928;10.682;2023-06-05T07:44:12;0.82;;;0.82;;
57155;SDS011;43023;59.928;10.682;2023-06-05T07:46:41;1.63;;;0.60;;
57155;SDS011;43023;59.928;10.682;2023-06-05T07:49:07;0.93;;;0.68;;
57155;SDS011;43023;59.928;10.682;2023-06-05T07:51:34;1.95;;;0.82;;
57155;SDS011;43023;59.928;10.682;2023-06-05T07:54:04;1.05;;;0.60;;
57155;SDS011;43023;59.928;10.682;2023-06-05T07:56:31;1.63;;;0.75;;
57155;SDS011;43023;59.928;10.682;2023-06-05T07:58:58;2.47;;;0.98;;
57155;SDS011;43023;59.928;10.682;2023-06-05T08:01:24;0.93;;;0.68;;
57155;SDS011;43023;59.928;10.682;2023-06-05T08:03:50;1.10;;;0.82;;
57155;SDS011;43023;59.928;10.682;2023-06-05T08:06:16;0.50;;;0.50;;
57155;SDS011;43023;59.928;10.682;2023-06-05T08:08:43;1.95;;;0.60;;
57155;SDS011;43023;59.928;10.682;2023-06-05T08:11:09;3.08;;;0.75;;
57155;SDS011;43023;59.928;10.682;2023-06-05T08:13:36;0.90;;;0.70;;
57155;SDS011;43023;59.928;10.682;2023-06-05T08:16:03;0.82;;;0.70;;
57155;SDS011;43023;59.928;10.682;2023-06-05T08:18:29;1.30;;;0.60;;
57155;SDS011;43023;59.928;10.682;2023-06-05T08:20:56;2.83;;;0.70;;
57155;SDS011;43023;59.928;10.682;2023-06-05T08:23:22;0.63;;;0.63;;
57155;SDS011;43023;59.928;10.682;2023-06-05T08:25:48;0.98;;;0.50;;
57155;SDS011;43023;59.928;10.682;2023-06-05T08:28:14;1.65;;;0.55;;
57155;SDS011;43023;59.928;10.682;2023-06-05T08:30:41;0.88;;;0.60;;
57155;SDS011;43023;59.928;10.682;2023-06-05T08:33:09;0.88;;;0.52;;
57155;SDS011;43023;59.928;10.682;2023-06-05T08:35:39;0.88;;;0.80;;
57155;SDS011;43023;59.928;10.682;2023-06-05T08:38:05;3.47;;;0.70;;
57155;SDS011;43023;59.928;10.682;2023-06-05T08:40:32;0.93;;;0.60;;
57155;SDS011;43023;59.928;10.682;2023-06-05T08:42:59;1.27;;;0.60;;
57155;SDS011;43023;59.928;10.682;2023-06-05T08:45:26;0.88;;;0.65;;
57155;SDS011;43023;59.928;10.682;2023-06-05T08:47:52;1.98;;;0.80;;
57155;SDS011;43023;59.928;10.682;2023-06-05T08:50:20;1.25;;;0.70;;
57155;SDS011;43023;59.928;10.682;2023-06-05T08:52:46;1.40;;;0.75;;
57155;SDS011;43023;59.928;10.682;2023-06-05T08:55:14;0.70;;;0.60;;
57155;SDS011;43023;59.928;10.682;2023-06-05T08:57:41;0.60;;;0.55;;
57155;SDS011;43023;59.928;10.682;2023-06-05T09:00:08;1.20;;;0.65;;
57155;SDS011;43023;59.928;10.682;2023-06-05T09:02:39;1.13;;;0.60;;
57155;SDS011;43023;59.928;10.682;2023-06-05T09:05:08;0.50;;;0.50;;
57155;SDS011;43023;59.928;10.682;2023-06-05T09:07:35;0.70;;;0.68;;
57155;SDS011;43023;59.928;10.682;2023-06-05T09:10:06;0.50;;;0.50;;
57155;SDS011;43023;59.928;10.682;2023-06-05T09:15:21;1.00;;;0.63;;
57155;SDS011;43023;59.928;10.682;2023-06-05T09:17:48;0.85;;;0.75;;
57155;SDS011;43023;59.928;10.682;2023-06-05T09:20:23;0.93;;;0.40;;
57155;SDS011;43023;59.928;10.682;2023-06-05T09:22:49;0.73;;;0.70;;
57155;SDS011;43023;59.928;10.682;2023-06-05T09:25:15;2.42;;;0.45;;
57155;SDS011;43023;59.928;10.682;2023-06-05T09:27:41;1.20;;;0.50;;
57155;SDS011;43023;59.928;10.682;2023-06-05T09:30:07;2.72;;;0.70;;
57155;SDS011;43023;59.928;10.682;2023-06-05T09:32:33;0.43;;;0.43;;
57155;SDS011;43023;59.928;10.682;2023-06-05T09:35:00;0.85;;;0.60;;
57155;SDS011;43023;59.928;10.682;2023-06-05T09:37:34;0.98;;;0.57;;
57155;SDS011;43023;59.928;10.682;2023-06-05T09:40:03;0.55;;;0.55;;
57155;SDS011;43023;59.928;10.682;2023-06-05T09:42:31;0.50;;;0.50;;
57155;SDS011;43023;59.928;10.682;2023-06-05T09:44:58;1.40;;;0.88;;
57155;SDS011;43023;59.928;10.682;2023-06-05T09:47:27;0.57;;;0.57;;
57155;SDS011;43023;59.928;10.682;2023-06-05T09:49:53;0.40;;;0.40;;
57155;SDS011;43023;59.928;10.682;2023-06-05T09:52:20;1.73;;;0.70;;
57155;SDS011;43023;59.928;10.682;2023-06-05T09:54:46;0.80;;;0.50;;
57155;SDS011;43023;59.928;10.682;2023-06-05T09:57:13;0.55;;;0.55;;
57155;SDS011;43023;59.928;10.682;2023-06-05T09:59:44;0.57;;;0.52;;
57155;SDS011;43023;59.928;10.682;2023-06-05T10:02:10;0.60;;;0.38;;
57155;SDS011;43023;59.928;10.682;2023-06-05T10:05:00;1.15;;;0.40;;
57155;SDS011;43023;59.928;10.682;2023-06-05T10:07:28;0.50;;;0.45;;
57155;SDS011;43023;59.928;10.682;2023-06-05T10:09:56;1.65;;;0.63;;
57155;SDS011;43023;59.928;10.682;2023-06-05T10:12:23;0.90;;;0.60;;
57155;SDS011;43023;59.928;10.682;2023-06-05T10:14:52;0.60;;;0.60;;
57155;SDS011;43023;59.928;10.682;2023-06-05T10:17:20;1.02;;;0.63;;
57155;SDS011;43023;59.928;10.682;2023-06-05T10:19:47;1.77;;;0.50;;
57155;SDS011;43023;59.928;10.682;2023-06-05T10:22:13;2.00;;;0.40;;
57155;SDS011;43023;59.928;10.682;2023-06-05T10:24:51;1.52;;;0.50;;
57155;SDS011;43023;59.928;10.682;2023-06-05T10:27:23;0.60;;;0.60;;
57155;SDS011;43023;59.928;10.682;2023-06-05T10:39:59;3.03;;;0.60;;
57155;SDS011;43023;59.928;10.682;2023-06-05T10:42:26;2.85;;;0.57;;
57155;SDS011;43023;59.928;10.682;2023-06-05T10:44:52;0.60;;;0.60;;
57155;SDS011;43023;59.928;10.682;2023-06-05T10:52:45;1.15;;;0.77;;
57155;SDS011;43023;59.928;10.682;2023-06-05T10:55:12;5.18;;;0.80;;
57155;SDS011;43023;59.928;10.682;2023-06-05T11:00:25;1.08;;;0.85;;
57155;SDS011;43023;59.928;10.682;2023-06-05T11:02:51;3.40;;;1.02;;
57155;SDS011;43023;59.928;10.682;2023-06-05T11:05:18;1.23;;;0.70;;
57155;SDS011;43023;59.928;10.682;2023-06-05T11:07:44;0.95;;;0.60;;
57155;SDS011;43023;59.928;10.682;2023-06-05T11:15:15;1.98;;;0.80;;
57155;SDS011;43023;59.928;10.682;2023-06-05T11:25:31;1.00;;;0.93;;
57155;SDS011;43023;59.928;10.682;2023-06-05T11:28:01;0.52;;;0.52;;
57155;SDS011;43023;59.928;10.682;2023-06-05T11:30:31;0.47;;;0.47;;
57155;SDS011;43023;59.928;10.682;2023-06-05T11:33:07;0.63;;;0.63;;
57155;SDS011;43023;59.928;10.682;2023-06-05T11:35:34;1.52;;;0.93;;
57155;SDS011;43023;59.928;10.682;2023-06-05T11:38:07;0.77;;;0.70;;
57155;SDS011;43023;59.928;10.682;2023-06-05T11:40:34;0.63;;;0.60;;
57155;SDS011;43023;59.928;10.682;2023-06-05T11:43:03;0.52;;;0.52;;
57155;SDS011;43023;59.928;10.682;2023-06-05T11:45:30;0.90;;;0.80;;
57155;SDS011;43023;59.928;10.682;2023-06-05T11:48:06;0.82;;;0.60;;
57155;SDS011;43023;59.928;10.682;2023-06-05T11:50:32;0.80;;;0.75;;
57155;SDS011;43023;59.928;10.682;2023-06-05T11:53:05;0.50;;;0.50;;
57155;SDS011;43023;59.928;10.682;2023-06-05T11:55:31;0.87;;;0.60;;
57155;SDS011;43023;59.928;10.682;2023-06-05T11:58:21;0.90;;;0.88;;
57155;SDS011;43023;59.928;10.682;2023-06-05T12:00:47;1.08;;;0.80;;
57155;SDS011;43023;59.928;10.682;2023-06-05T12:03:20;0.60;;;0.60;;
57155;SDS011;43023;59.928;10.682;2023-06-05T12:05:49;0.57;;;0.52;;
57155;SDS011;43023;59.928;10.682;2023-06-05T12:08:21;1.08;;;0.80;;
57155;SDS011;43023;59.928;10.682;2023-06-05T12:10:47;0.57;;;0.57;;
57155;SDS011;43023;59.928;10.682;2023-06-05T12:13:13;1.90;;;0.63;;
57155;SDS011;43023;59.928;10.682;2023-06-05T12:15:40;0.88;;;0.60;;
57155;SDS011;43023;59.928;10.682;2023-06-05T12:18:06;1.88;;;0.50;;
57155;SDS011;43023;59.928;10.682;2023-06-05T12:20:37;2.13;;;0.43;;
57155;SDS011;43023;59.928;10.682;2023-06-05T12:23:06;0.68;;;0.60;;
57155;SDS011;43023;59.928;10.682;2023-06-05T12:25:32;0.55;;;0.50;;
57155;SDS011;43023;59.928;10.682;2023-06-05T12:27:59;2.65;;;0.77;;
57155;SDS011;43023;59.928;10.682;2023-06-05T12:30:25;0.75;;;0.50;;
57155;SDS011;43023;59.928;10.682;2023-06-05T12:32:51;1.25;;;0.55;;
57155;SDS011;43023;59.928;10.682;2023-06-05T12:35:24;3.97;;;0.90;;
57155;SDS011;43023;59.928;10.682;2023-06-05T12:37:52;0.93;;;0.45;;
57155;SDS011;43023;59.928;10.682;2023-06-05T12:40:18;1.45;;;0.73;;
57155;SDS011;43023;59.928;10.682;2023-06-05T12:42:47;0.47;;;0.47;;
57155;SDS011;43023;59.928;10.682;2023-06-05T12:45:14;0.50;;;0.50;;
57155;SDS011;43023;59.928;10.682;2023-06-05T12:47:41;1.05;;;0.52;;
57155;SDS011;43023;59.928;10.682;2023-06-05T12:50:09;0.98;;;0.70;;
57155;SDS011;43023;59.928;10.682;2023-06-05T12:52:39;0.52;;;0.38;;
57155;SDS011;43023;59.928;10.682;2023-06-05T12:55:06;0.88;;;0.65;;
57155;SDS011;43023;59.928;10.682;2023-06-05T12:57:33;0.57;;;0.57;;
57155;SDS011;43023;59.928;10.682;2023-06-05T13:00:01;0.60;;;0.40;;
57155;SDS011;43023;59.928;10.682;2023-06-05T13:02:36;0.43;;;0.40;;
57155;SDS011;43023;59.928;10.682;2023-06-05T13:05:02;0.85;;;0.80;;
57155;SDS011;43023;59.928;10.682;2023-06-05T13:07:29;2.22;;;0.60;;
57155;SDS011;43023;59.928;10.682;2023-06-05T13:09:56;0.63;;;0.50;;
57155;SDS011;43023;59.928;10.682;2023-06-05T13:12:22;1.38;;;0.70;;
57155;SDS011;43023;59.928;10.682;2023-06-05T13:14:48;2.00;;;0.90;;
57155;SDS011;43023;59.928;10.682;2023-06-05T13:17:15;0.68;;;0.68;;
57155;SDS011;43023;59.928;10.682;2023-06-05T13:19:41;2.10;;;0.50;;
57155;SDS011;43023;59.928;10.682;2023-06-05T13:22:07;0.98;;;0.70;;
57155;SDS011;43023;59.928;10.682;2023-06-05T13:24:33;1.58;;;0.50;;
57155;SDS011;43023;59.928;10.682;2023-06-05T13:27:00;0.60;;;0.60;;
57155;SDS011;43023;59.928;10.682;2023-06-05T13:29:26;0.60;;;0.60;;
57155;SDS011;43023;59.928;10.682;2023-06-05T13:31:52;0.80;;;0.60;;
57155;SDS011;43023;59.928;10.682;2023-06-05T13:34:18;1.40;;;0.55;;
57155;SDS011;43023;59.928;10.682;2023-06-05T13:36:44;0.98;;;0.50;;
57155;SDS011;43023;59.928;10.682;2023-06-05T13:39:11;2.25;;;0.50;;
57155;SDS011;43023;59.928;10.682;2023-06-05T13:41:37;2.95;;;0.50;;
57155;SDS011;43023;59.928;10.682;2023-06-05T13:44:03;0.73;;;0.52;;
57155;SDS011;43023;59.928;10.682;2023-06-05T13:46:29;0.90;;;0.90;;
57155;SDS011;43023;59.928;10.682;2023-06-05T13:48:55;0.93;;;0.63;;
57155;SDS011;43023;59.928;10.682;2023-06-05T13:51:25;0.80;;;0.60;;
57155;SDS011;43023;59.928;10.682;2023-06-05T13:53:51;2.75;;;0.68;;
57155;SDS011;43023;59.928;10.682;2023-06-05T13:56:17;0.98;;;0.55;;
57155;SDS011;43023;59.928;10.682;2023-06-05T13:58:43;2.67;;;0.75;;
57155;SDS011;43023;59.928;10.682;2023-06-05T14:01:09;3.85;;;1.00;;
57155;SDS011;43023;59.928;10.682;2023-06-05T14:03:35;2.70;;;0.85;;
57155;SDS011;43023;59.928;10.682;2023-06-05T14:06:01;3.10;;;1.00;;
57155;SDS011;43023;59.928;10.682;2023-06-05T14:08:27;1.60;;;1.50;;
57155;SDS011;43023;59.928;10.682;2023-06-05T14:10:54;2.30;;;1.65;;
57155;SDS011;43023;59.928;10.682;2023-06-05T14:13:20;5.22;;;2.25;;
57155;SDS011;43023;59.928;10.682;2023-06-05T14:15:46;4.25;;;2.05;;
57155;SDS011;43023;59.928;10.682;2023-06-05T14:18:12;3.97;;;2.25;;
57155;SDS011;43023;59.928;10.682;2023-06-05T14:20:38;6.82;;;2.28;;
57155;SDS011;43023;59.928;10.682;2023-06-05T14:23:05;3.33;;;2.00;;
57155;SDS011;43023;59.928;10.682;2023-06-05T14:25:31;6.15;;;2.13;;
57155;SDS011;43023;59.928;10.682;2023-06-05T14:27:57;6.93;;;2.25;;
57155;SDS011;43023;59.928;10.682;2023-06-05T14:30:23;5.43;;;1.67;;
57155;SDS011;43023;59.928;10.682;2023-06-05T14:32:51;2.30;;;2.03;;
57155;SDS011;43023;59.928;10.682;2023-06-05T14:35:17;5.20;;;1.95;;
57155;SDS011;43023;59.928;10.682;2023-06-05T14:37:45;5.40;;;2.97;;
57155;SDS011;43023;59.928;10.682;2023-06-05T14:40:11;6.00;;;2.20;;
57155;SDS011;43023;59.928;10.682;2023-06-05T14:42:37;5.55;;;2.55;;
57155;SDS011;43023;59.928;10.682;2023-06-05T14:45:04;4.72;;;2.47;;
57155;SDS011;43023;59.928;10.682;2023-06-05T14:47:30;3.35;;;2.50;;
57155;SDS011;43023;59.928;10.682;2023-06-05T14:49:56;3.20;;;1.98;;
57155;SDS011;43023;59.928;10.682;2023-06-05T14:52:22;8.55;;;2.95;;
57155;SDS011;43023;59.928;10.682;2023-06-05T14:54:48;5.93;;;2.40;;
57155;SDS011;43023;59.928;10.682;2023-06-05T14:57:15;8.50;;;2.85;;
57155;SDS011;43023;59.928;10.682;2023-06-05T14:59:41;9.38;;;2.95;;
57155;SDS011;43023;59.928;10.682;2023-06-05T15:02:07;11.38;;;2.75;;
57155;SDS011;43023;59.928;10.682;2023-06-05T15:04:33;9.68;;;3.17;;
57155;SDS011;43023;59.928;10.682;2023-06-05T15:06:59;3.83;;;2.15;;
57155;SDS011;43023;59.928;10.682;2023-06-05T15:09:26;5.03;;;2.10;;
57155;SDS011;43023;59.928;10.682;2023-06-05T15:11:52;3.78;;;2.35;;